Time;durP1;ratioP1;P1;durP2;ratioP2;P2;SDS_P1;SDS_P2;PMS_P1;PMS_P2;Temp;Humidity;BMP_temperature;BMP_pressure;BME280_temperature;BME280_humidity;BME280_pressure;Samples;Min_cycle;Max_cycle;Signal;HPM_P1;HPM_P2
2022/02/23 00:11:49;;;;;;;3.53;1.20;;;;;;;9.54;73.85;100331.41;1087790;54;20031;-80
2022/02/23 00:12:52;;;;;;;5.47;1.20;;;;;;;9.48;74.13;100332.78;1088078;54;20018;-79
2022/02/23 00:13:57;;;;;;;4.30;1.23;;;;;;;9.46;74.31;100323.22;1088154;54;20648;-79
2022/02/23 00:14:59;;;;;;;4.45;1.20;;;;;;;9.40;74.89;100315.75;1088108;54;20034;-80
2022/02/23 00:16:03;;;;;;;4.53;1.38;;;;;;;9.41;74.90;100330.75;1088062;54;20018;-81
2022/02/23 00:17:05;;;;;;;4.05;0.98;;;;;;;9.47;74.38;100328.41;1088110;54;20082;-80
2022/02/23 00:18:14;;;;;;;4.15;1.40;;;;;;;9.47;74.53;100338.25;1088039;54;20101;-81
2022/02/23 00:20:36;;;;;;;5.30;1.77;;;;;;;9.43;74.27;100329.69;1087686;54;20030;-83
2022/02/23 00:25:07;;;;;;;4.68;1.27;;;;;;;9.45;74.04;100342.88;1087956;54;20034;-79
2022/02/23 00:26:09;;;;;;;5.38;1.35;;;;;;;9.51;73.94;100343.22;1088117;54;20074;-79
2022/02/23 00:27:18;;;;;;;3.65;1.02;;;;;;;9.59;73.54;100336.34;1088238;54;20034;-85
2022/02/23 00:28:20;;;;;;;5.18;1.20;;;;;;;9.47;74.03;100336.44;1088037;54;20025;-80
2022/02/23 00:29:26;;;;;;;4.15;1.27;;;;;;;9.61;73.58;100335.25;1088158;54;20046;-81
2022/02/23 00:30:28;;;;;;;3.90;1.20;;;;;;;9.60;73.46;100330.88;1088021;54;20038;-82
2022/02/23 00:31:34;;;;;;;5.13;1.55;;;;;;;9.52;73.43;100334.22;1088018;54;20046;-81
2022/02/23 00:37:14;;;;;;;4.85;1.42;;;;;;;9.55;73.21;100345.59;1087384;54;20022;-77
2022/02/23 00:38:15;;;;;;;3.90;1.10;;;;;;;9.55;73.33;100340.25;1087464;54;20041;-77
2022/02/23 00:39:19;;;;;;;2.75;0.90;;;;;;;9.48;73.28;100338.13;1087451;54;20053;-77
2022/02/23 00:40:21;;;;;;;3.80;1.10;;;;;;;9.68;73.01;100343.56;1087654;54;20038;-78
2022/02/23 00:41:25;;;;;;;4.82;1.10;;;;;;;9.75;72.99;100339.41;1087887;47;20034;-78
2022/02/23 00:42:29;;;;;;;4.25;1.08;;;;;;;9.71;72.78;100337.13;1087792;54;20041;-77
2022/02/23 00:43:33;;;;;;;3.92;1.13;;;;;;;9.68;72.96;100343.56;1088897;46;20785;-77
2022/02/23 00:44:35;;;;;;;2.58;0.90;;;;;;;9.79;72.84;100346.19;1087741;54;20023;-77
2022/02/23 00:45:39;;;;;;;4.28;1.10;;;;;;;9.86;72.56;100342.97;1087736;54;20034;-78
2022/02/23 00:46:41;;;;;;;5.88;1.30;;;;;;;9.76;72.92;100354.44;1087820;54;20041;-77
2022/02/23 00:47:45;;;;;;;2.47;0.90;;;;;;;9.83;72.91;100384.13;1091285;39;20708;-79
2022/02/23 00:48:47;;;;;;;3.67;1.10;;;;;;;9.86;72.96;100428.41;1087809;54;20026;-80
2022/02/23 00:49:51;;;;;;;6.13;1.65;;;;;;;9.70;73.41;100453.75;1087880;54;20079;-78
2022/02/23 00:50:53;;;;;;;4.63;0.93;;;;;;;9.49;72.61;100451.06;1087909;54;20061;-80
2022/02/23 00:51:58;;;;;;;6.50;1.00;;;;;;;9.13;71.82;100456.66;1087785;54;20041;-76
2022/02/23 00:53:01;;;;;;;3.05;0.88;;;;;;;8.98;72.04;100455.22;1091072;46;20039;-79
2022/02/23 00:54:05;;;;;;;3.53;0.85;;;;;;;8.83;72.61;100460.81;1087783;54;20065;-78
2022/02/23 00:55:08;;;;;;;5.68;1.17;;;;;;;8.68;72.62;100465.56;1087654;54;20035;-79
2022/02/23 00:56:13;;;;;;;5.55;1.10;;;;;;;8.50;73.30;100475.00;1087524;54;20047;-77
2022/02/23 00:57:15;;;;;;;4.40;0.98;;;;;;;8.49;72.93;100478.66;1087987;54;20034;-79
2022/02/23 00:58:22;;;;;;;8.10;2.35;;;;;;;8.39;73.54;100473.16;1087976;54;20046;-76
2022/02/23 00:59:26;;;;;;;3.45;0.90;;;;;;;8.34;73.89;100470.88;1087865;54;20022;-77
2022/02/23 01:00:28;;;;;;;6.53;0.90;;;;;;;8.31;73.99;100480.91;1089863;39;20710;-76
2022/02/23 01:01:32;;;;;;;4.95;1.27;;;;;;;8.26;73.69;100474.13;1087863;54;20039;-75
2022/02/23 01:02:34;;;;;;;4.10;1.00;;;;;;;8.34;73.16;100481.53;1087799;54;20045;-76
2022/02/23 01:03:38;;;;;;;3.33;1.23;;;;;;;8.30;72.60;100487.22;1093427;39;20507;-77
2022/02/23 01:04:39;;;;;;;5.38;1.42;;;;;;;8.26;72.47;100473.28;1087730;54;20030;-76
2022/02/23 01:05:44;;;;;;;4.57;1.00;;;;;;;8.10;72.89;100484.28;1087811;54;20114;-76
2022/02/23 01:06:45;;;;;;;2.22;0.70;;;;;;;8.01;72.82;100491.13;1087785;54;20042;-75
2022/02/23 01:07:50;;;;;;;4.45;0.80;;;;;;;7.94;72.66;100492.56;1087761;54;20077;-76
2022/02/23 01:08:51;;;;;;;7.30;1.17;;;;;;;7.96;72.79;100490.66;1088754;39;20686;-76
2022/02/23 01:09:56;;;;;;;4.18;1.10;;;;;;;7.97;72.57;100501.19;1090737;39;20662;-79
2022/02/23 01:10:57;;;;;;;7.15;1.70;;;;;;;7.87;73.07;100497.50;1087709;54;20031;-80
2022/02/23 01:12:01;;;;;;;5.00;0.80;;;;;;;7.76;73.51;100501.00;1087528;54;20042;-78
2022/02/23 01:13:03;;;;;;;5.50;1.17;;;;;;;7.66;74.34;100507.97;1087431;54;20034;-80
2022/02/23 01:14:10;;;;;;;4.28;0.90;;;;;;;7.60;75.19;100508.44;1087785;54;20082;-78
2022/02/23 01:15:12;;;;;;;4.78;1.05;;;;;;;7.59;75.00;100509.41;1087705;54;20066;-79
2022/02/23 01:16:17;;;;;;;4.47;0.98;;;;;;;7.62;74.94;100507.34;1087832;54;20031;-79
2022/02/23 01:17:19;;;;;;;6.28;1.17;;;;;;;7.65;74.83;100507.09;1087936;54;20042;-79
2022/02/23 01:18:24;;;;;;;4.45;1.00;;;;;;;7.61;75.19;100508.31;1087733;54;20034;-79
2022/02/23 01:19:26;;;;;;;4.70;1.00;;;;;;;7.49;75.45;100504.75;1087764;54;20098;-82
2022/02/23 01:20:30;;;;;;;5.80;1.10;;;;;;;7.43;75.75;100505.19;1087721;54;20042;-80
2022/02/23 01:21:31;;;;;;;5.40;1.15;;;;;;;7.39;75.89;100514.38;1087805;54;20063;-78
2022/02/23 01:22:36;;;;;;;6.38;1.23;;;;;;;7.41;75.84;100509.81;1088215;39;20641;-79
2022/02/23 01:23:38;;;;;;;5.78;1.30;;;;;;;7.28;75.42;100517.81;1087690;54;20034;-81
2022/02/23 01:24:42;;;;;;;4.22;1.05;;;;;;;7.27;75.55;100520.59;1087850;54;20604;-79
2022/02/23 01:25:45;;;;;;;4.18;0.90;;;;;;;7.33;75.38;100518.34;1087792;54;20034;-79
2022/02/23 01:26:49;;;;;;;5.47;1.23;;;;;;;7.23;75.15;100517.31;1087860;54;20789;-80
2022/02/23 01:27:52;;;;;;;4.25;0.77;;;;;;;7.38;74.80;100523.31;1089868;46;20030;-80
2022/02/23 01:28:56;;;;;;;5.38;1.00;;;;;;;7.42;74.63;100516.78;1087695;54;20042;-80
2022/02/23 01:30:03;;;;;;;5.25;1.08;;;;;;;7.43;73.64;100518.50;1087819;39;20152;-80
2022/02/23 01:31:07;;;;;;;4.47;0.82;;;;;;;7.33;74.08;100523.66;1087883;54;20079;-80
2022/02/23 01:32:14;;;;;;;4.20;1.15;;;;;;;7.31;74.26;100525.56;1087951;54;20691;-79
2022/02/23 01:33:15;;;;;;;5.18;1.38;;;;;;;7.23;74.34;100521.75;1087938;54;20023;-80
2022/02/23 01:34:21;;;;;;;6.35;1.38;;;;;;;7.39;73.87;100509.06;1087939;54;20066;-80
2022/02/23 01:35:25;;;;;;;5.07;1.35;;;;;;;7.43;74.05;100505.19;1087924;54;20042;-80
2022/02/23 01:36:27;;;;;;;3.22;0.85;;;;;;;7.21;74.53;100508.59;1087280;54;20049;-81
2022/02/23 01:37:32;;;;;;;7.53;1.20;;;;;;;7.11;74.84;100512.88;1088021;54;20030;-80
2022/02/23 01:38:33;;;;;;;5.43;1.02;;;;;;;7.07;75.35;100511.41;1087925;54;20030;-79
2022/02/23 01:39:38;;;;;;;4.45;1.05;;;;;;;7.02;75.83;100520.56;1087957;54;20030;-82
2022/02/23 01:40:40;;;;;;;4.93;0.98;;;;;;;7.13;75.45;100527.75;1087863;54;20030;-80
2022/02/23 01:41:45;;;;;;;5.65;0.85;;;;;;;7.09;75.54;100523.63;1087931;54;20026;-80
2022/02/23 01:42:47;;;;;;;4.30;1.30;;;;;;;7.12;75.42;100525.19;1088024;54;20050;-79
2022/02/23 01:43:52;;;;;;;4.22;1.15;;;;;;;7.17;75.42;100517.75;1087997;54;20034;-79
2022/02/23 01:44:53;;;;;;;4.20;0.90;;;;;;;7.10;75.53;100537.75;1087805;54;20034;-79
2022/02/23 01:46:00;;;;;;;5.07;0.95;;;;;;;7.18;75.53;100530.06;1089409;46;20038;-80
2022/02/23 01:47:03;;;;;;;4.57;1.13;;;;;;;7.12;75.18;100539.38;1087701;54;20035;-81
2022/02/23 01:48:07;;;;;;;5.22;1.42;;;;;;;7.33;74.60;100541.41;1087798;54;20038;-79
2022/02/23 01:49:09;;;;;;;4.07;0.80;;;;;;;7.38;74.59;100546.38;1087774;54;20057;-81
2022/02/23 01:50:18;;;;;;;6.05;0.98;;;;;;;7.34;74.50;100551.09;1087796;54;20102;-80
2022/02/23 01:51:19;;;;;;;3.47;0.80;;;;;;;7.44;73.91;100553.94;1089782;46;20041;-80
2022/02/23 01:52:25;;;;;;;4.40;0.73;;;;;;;7.50;73.84;100558.81;1087848;54;20034;-80
2022/02/23 01:53:26;;;;;;;3.17;1.13;;;;;;;7.56;73.37;100560.16;1087898;54;20041;-80
2022/02/23 01:54:31;;;;;;;3.90;0.90;;;;;;;7.62;73.35;100552.59;1087715;54;20070;-80
2022/02/23 01:55:32;;;;;;;3.85;1.00;;;;;;;7.55;73.38;100558.47;1087790;54;20054;-81
2022/02/23 01:56:37;;;;;;;5.15;1.10;;;;;;;7.46;73.71;100565.34;1087809;54;20026;-78
2022/02/23 01:57:38;;;;;;;4.82;0.98;;;;;;;7.45;73.69;100564.47;1087867;54;20030;-80
2022/02/23 01:58:43;;;;;;;5.50;1.23;;;;;;;7.42;73.82;100571.81;1087934;54;20025;-80
2022/02/23 01:59:44;;;;;;;5.25;1.02;;;;;;;7.52;73.53;100564.88;1087993;54;20058;-80
2022/02/23 02:00:57;;;;;;;4.22;0.88;;;;;;;7.38;73.61;100570.31;1088123;54;20034;-80
2022/02/23 02:02:01;;;;;;;5.28;0.80;;;;;;;7.21;74.30;100577.72;1088396;46;20068;-80
2022/02/23 02:03:05;;;;;;;5.47;1.27;;;;;;;7.21;74.39;100576.88;1087753;54;20090;-80
2022/02/23 02:04:07;;;;;;;5.43;1.40;;;;;;;7.26;74.11;100578.25;1087791;54;20038;-80
2022/02/23 02:05:12;;;;;;;3.63;0.75;;;;;;;7.43;73.90;100571.69;1087739;54;20034;-80
2022/02/23 02:06:14;;;;;;;5.97;0.90;;;;;;;7.18;73.70;100576.16;1087770;54;20038;-80
2022/02/23 02:07:19;;;;;;;5.50;1.02;;;;;;;7.23;74.05;100581.13;1087715;54;20046;-79
2022/02/23 02:08:20;;;;;;;4.35;1.10;;;;;;;7.37;73.91;100590.78;1087727;54;20026;-78
2022/02/23 02:09:24;;;;;;;4.38;0.85;;;;;;;7.40;73.70;100587.03;1087738;54;20036;-80
2022/02/23 02:10:26;;;;;;;4.50;0.88;;;;;;;7.46;73.40;100582.13;1087669;54;20049;-80
2022/02/23 02:11:30;;;;;;;3.80;0.95;;;;;;;7.40;73.41;100587.91;1087647;54;20049;-80
2022/02/23 02:12:32;;;;;;;7.63;1.33;;;;;;;7.27;73.63;100587.94;1087680;54;20042;-79
2022/02/23 02:13:36;;;;;;;7.85;1.15;;;;;;;7.27;73.64;100587.94;1087923;47;20034;-78
2022/02/23 02:14:38;;;;;;;5.32;1.00;;;;;;;7.14;73.88;100587.94;1087568;54;20037;-80
2022/02/23 02:15:42;;;;;;;4.90;0.90;;;;;;;7.20;74.09;100588.47;1090289;39;20536;-80
2022/02/23 02:16:46;;;;;;;5.88;0.80;;;;;;;7.25;73.84;100589.84;1087879;54;20046;-80
2022/02/23 02:17:50;;;;;;;6.22;1.55;;;;;;;7.31;73.74;100588.56;1087919;54;20034;-78
2022/02/23 02:18:54;;;;;;;5.28;1.20;;;;;;;7.27;73.64;100598.59;1087534;54;20031;-80
2022/02/23 02:19:56;;;;;;;3.85;1.27;;;;;;;7.14;74.13;100592.44;1087627;54;20054;-79
2022/02/23 02:21:00;;;;;;;5.88;0.90;;;;;;;7.22;74.14;100603.34;1087874;54;20053;-81
2022/02/23 02:22:06;;;;;;;3.13;0.88;;;;;;;7.37;73.66;100597.91;1087823;54;20045;-79
2022/02/23 02:23:10;;;;;;;3.35;0.88;;;;;;;7.27;73.84;100601.25;1087916;54;20037;-80
2022/02/23 02:24:12;;;;;;;6.78;1.00;;;;;;;7.21;74.11;100606.97;1088926;39;20696;-81
2022/02/23 02:25:16;;;;;;;4.43;0.82;;;;;;;7.22;74.09;100611.34;1087908;54;20031;-79
2022/02/23 02:26:23;;;;;;;4.80;1.00;;;;;;;7.11;74.10;100608.59;1087922;54;20038;-79
2022/02/23 02:27:28;;;;;;;5.18;1.00;;;;;;;7.17;74.20;100618.81;1088039;54;20039;-80
2022/02/23 02:28:32;;;;;;;7.82;1.35;;;;;;;7.21;73.95;100614.94;1087979;54;20034;-81
2022/02/23 02:29:35;;;;;;;7.22;0.95;;;;;;;7.34;73.39;100625.56;1087982;54;20059;-79
2022/02/23 02:30:41;;;;;;;5.70;1.48;;;;;;;7.41;73.21;100626.84;1088146;54;20028;-80
2022/02/23 02:31:43;;;;;;;3.70;0.90;;;;;;;7.48;72.97;100624.56;1088133;54;20023;-80
2022/02/23 02:32:48;;;;;;;3.13;0.90;;;;;;;7.48;73.22;100632.56;1088133;54;20034;-79
2022/02/23 02:33:53;;;;;;;4.05;1.05;;;;;;;7.46;73.25;100622.03;1088055;54;20038;-82
2022/02/23 02:34:57;;;;;;;5.07;1.00;;;;;;;7.53;72.93;100632.22;1087854;54;20034;-79
2022/02/23 02:35:59;;;;;;;5.50;2.03;;;;;;;7.34;73.46;100631.75;1087535;54;20039;-79
2022/02/23 02:37:04;;;;;;;4.93;1.23;;;;;;;7.45;73.27;100632.78;1087383;54;20019;-82
2022/02/23 02:38:11;;;;;;;4.07;0.90;;;;;;;7.50;72.90;100633.28;1087774;54;20038;-81
2022/02/23 02:39:13;;;;;;;3.55;0.90;;;;;;;7.59;72.67;100629.13;1087870;54;20026;-79
2022/02/23 02:40:17;;;;;;;3.15;0.73;;;;;;;7.59;72.68;100634.47;1087826;54;20038;-79
2022/02/23 02:41:19;;;;;;;4.35;0.90;;;;;;;7.62;72.50;100640.41;1090281;39;20683;-80
2022/02/23 02:42:23;;;;;;;3.88;0.90;;;;;;;7.65;72.32;100642.81;1087793;54;20014;-80
2022/02/23 02:43:25;;;;;;;3.53;0.90;;;;;;;7.69;72.07;100629.31;1087949;47;20039;-82
2022/02/23 02:44:30;;;;;;;4.97;1.10;;;;;;;7.69;72.12;100637.28;1087713;54;20030;-79
2022/02/23 02:45:32;;;;;;;2.85;0.70;;;;;;;7.71;71.71;100635.38;1087582;54;20034;-79
2022/02/23 02:46:36;;;;;;;5.30;1.10;;;;;;;7.72;71.65;100637.06;1087771;54;20030;-80
2022/02/23 02:47:38;;;;;;;8.30;1.73;;;;;;;7.61;71.77;100640.50;1087803;54;20066;-80
2022/02/23 02:48:42;;;;;;;4.50;1.30;;;;;;;7.57;72.26;100639.03;1089071;39;20586;-80
2022/02/23 02:49:44;;;;;;;3.95;0.80;;;;;;;7.50;72.13;100646.59;1088125;54;20090;-78
2022/02/23 02:50:48;;;;;;;4.63;0.90;;;;;;;7.42;72.09;100648.97;1088163;54;20029;-79
2022/02/23 02:51:50;;;;;;;5.72;1.25;;;;;;;7.51;72.18;100652.78;1089005;39;20646;-80
2022/02/23 02:52:54;;;;;;;4.63;1.38;;;;;;;7.55;71.90;100646.28;1087698;54;20034;-80
2022/02/23 02:53:58;;;;;;;6.40;1.15;;;;;;;7.42;72.19;100651.63;1087878;54;20026;-80
2022/02/23 02:55:03;;;;;;;4.55;1.08;;;;;;;7.53;71.77;100643.72;1087945;54;20694;-80
2022/02/23 02:56:07;;;;;;;4.53;0.80;;;;;;;7.59;71.66;100650.44;1088014;54;20038;-79
2022/02/23 02:57:09;;;;;;;6.78;1.40;;;;;;;7.47;72.05;100657.47;1088016;54;20061;-78
2022/02/23 02:58:13;;;;;;;4.32;1.33;;;;;;;7.45;71.94;100659.41;1087956;54;20041;-79
2022/02/23 02:59:15;;;;;;;5.90;1.30;;;;;;;7.31;72.14;100657.72;1087950;54;20725;-79
2022/02/23 03:00:20;;;;;;;10.85;2.35;;;;;;;7.21;72.20;100657.50;1087919;54;20107;-80
2022/02/23 03:01:23;;;;;;;5.57;1.60;;;;;;;7.17;72.00;100664.00;1088750;39;20578;-79
2022/02/23 03:02:27;;;;;;;7.30;1.30;;;;;;;7.17;72.12;100664.00;1087998;54;20059;-79
2022/02/23 03:03:30;;;;;;;5.35;1.38;;;;;;;7.09;72.54;100669.84;1088175;46;20065;-79
2022/02/23 03:04:34;;;;;;;7.03;1.73;;;;;;;7.09;72.33;100663.66;1088067;54;20025;-80
2022/02/23 03:05:36;;;;;;;7.57;1.50;;;;;;;7.17;72.14;100666.66;1088078;54;20014;-80
2022/02/23 03:06:40;;;;;;;5.95;1.30;;;;;;;7.10;72.40;100673.34;1088099;54;20046;-79
2022/02/23 03:07:44;;;;;;;5.90;1.17;;;;;;;7.13;72.17;100671.31;1088011;54;20031;-79
2022/02/23 03:08:48;;;;;;;5.47;1.10;;;;;;;7.08;72.46;100677.94;1087859;54;20035;-80
2022/02/23 03:09:55;;;;;;;6.68;1.73;;;;;;;7.02;72.31;100672.09;1087678;54;20034;-79
2022/02/23 03:10:57;;;;;;;10.13;1.48;;;;;;;7.00;72.55;100676.66;1088075;54;20054;-79
2022/02/23 03:12:01;;;;;;;6.78;1.50;;;;;;;6.97;72.63;100687.53;1088466;46;20038;-80
2022/02/23 03:13:02;;;;;;;8.13;1.60;;;;;;;6.92;72.82;100679.00;1088029;54;20034;-80
2022/02/23 03:14:07;;;;;;;6.55;1.50;;;;;;;6.89;72.90;100679.22;1088040;54;20026;-82
2022/02/23 03:15:09;;;;;;;5.18;1.75;;;;;;;6.83;73.18;100676.97;1088088;54;20034;-80
2022/02/23 03:16:15;;;;;;;6.85;1.60;;;;;;;6.80;73.12;100679.84;1088148;54;20057;-81
2022/02/23 03:17:17;;;;;;;5.53;1.10;;;;;;;6.87;72.73;100681.13;1088176;54;20642;-80
2022/02/23 03:18:21;;;;;;;6.53;1.45;;;;;;;6.90;72.69;100678.25;1088111;54;20015;-81
2022/02/23 03:19:22;;;;;;;6.68;1.55;;;;;;;6.85;72.80;100675.06;1088154;54;20035;-80
2022/02/23 03:20:27;;;;;;;8.75;1.58;;;;;;;6.89;72.60;100679.22;1088165;54;20030;-80
2022/02/23 03:21:28;;;;;;;4.78;1.25;;;;;;;6.96;72.32;100674.31;1088202;54;20059;-80
2022/02/23 03:22:33;;;;;;;6.10;1.45;;;;;;;7.06;72.06;100679.84;1088186;54;20018;-81
2022/02/23 03:23:36;;;;;;;4.95;1.30;;;;;;;7.12;71.94;100679.41;1090706;39;20713;-80
2022/02/23 03:24:40;;;;;;;5.32;1.30;;;;;;;7.22;72.01;100683.16;1088099;54;20717;-79
2022/02/23 03:25:44;;;;;;;4.88;1.10;;;;;;;7.28;71.87;100674.72;1087895;54;20042;-79
2022/02/23 03:26:50;;;;;;;8.20;1.40;;;;;;;7.32;71.78;100665.59;1087906;54;20031;-79
2022/02/23 03:27:52;;;;;;;7.00;1.80;;;;;;;7.25;71.69;100674.97;1088086;54;20031;-81
2022/02/23 03:28:56;;;;;;;11.73;2.80;;;;;;;7.22;71.76;100680.47;1088027;54;20041;-80
2022/02/23 03:29:58;;;;;;;5.22;1.17;;;;;;;7.24;71.72;100683.03;1088080;54;20038;-80
2022/02/23 03:31:03;;;;;;;9.90;1.40;;;;;;;7.22;71.95;100683.16;1088090;54;21337;-80
2022/02/23 03:32:06;;;;;;;6.35;1.60;;;;;;;7.25;71.71;100679.41;1090739;39;20093;-79
2022/02/23 03:33:12;;;;;;;7.93;1.48;;;;;;;7.28;71.46;100679.22;1088177;54;20639;-81
2022/02/23 03:34:14;;;;;;;5.47;1.58;;;;;;;7.28;71.51;100693.34;1088111;54;20157;-80
2022/02/23 03:35:20;;;;;;;8.23;1.80;;;;;;;7.21;71.72;100688.56;1088069;54;20608;-80
2022/02/23 03:36:22;;;;;;;4.82;1.33;;;;;;;7.17;71.89;100694.09;1088171;54;20065;-79
2022/02/23 03:37:26;;;;;;;9.00;2.00;;;;;;;7.15;71.88;100693.34;1087837;54;20111;-79
2022/02/23 03:38:27;;;;;;;5.95;1.70;;;;;;;7.13;72.11;100694.41;1088128;54;20034;-79
2022/02/23 03:39:32;;;;;;;9.25;2.85;;;;;;;7.02;72.46;100696.00;1091984;39;20571;-79
2022/02/23 03:40:34;;;;;;;8.48;1.45;;;;;;;6.95;72.83;100694.75;1088054;54;20037;-79
2022/02/23 03:41:41;;;;;;;7.47;2.05;;;;;;;6.82;73.30;100699.19;1087989;54;20030;-79
2022/02/23 03:42:42;;;;;;;7.32;1.60;;;;;;;6.72;73.78;100696.31;1087522;54;21019;-80
2022/02/23 03:43:47;;;;;;;8.60;1.90;;;;;;;6.69;73.61;100701.81;1087839;54;20030;-80
2022/02/23 03:44:48;;;;;;;7.13;1.50;;;;;;;6.76;73.42;100702.25;1087815;54;20106;-79
2022/02/23 03:45:52;;;;;;;8.32;2.47;;;;;;;6.77;73.61;100704.81;1087920;54;20038;-79
2022/02/23 03:46:54;;;;;;;7.20;2.17;;;;;;;6.64;74.15;100704.78;1087945;54;20030;-79
2022/02/23 03:47:58;;;;;;;7.60;1.45;;;;;;;6.60;74.21;100710.41;1087945;54;20108;-79
2022/02/23 03:49:03;;;;;;;6.13;1.60;;;;;;;6.49;74.66;100708.50;1087909;54;20054;-80
2022/02/23 03:50:05;;;;;;;8.45;1.80;;;;;;;6.53;74.59;100715.28;1087863;54;20055;-79
2022/02/23 03:51:10;;;;;;;7.88;2.35;;;;;;;6.42;75.06;100713.34;1087988;54;20057;-80
2022/02/23 03:52:12;;;;;;;6.28;1.63;;;;;;;6.35;75.33;100720.88;1087942;54;20035;-80
2022/02/23 03:53:16;;;;;;;5.55;1.58;;;;;;;6.28;76.07;100727.53;1087934;54;20034;-79
2022/02/23 03:54:21;;;;;;;11.32;1.67;;;;;;;6.23;76.25;100735.81;1087928;54;20049;-80
2022/02/23 03:55:22;;;;;;;8.93;1.70;;;;;;;6.24;75.92;100734.84;1087881;54;20042;-80
2022/02/23 03:57:47;;;;;;;6.85;1.50;;;;;;;6.24;76.29;100742.81;1087952;54;20049;-79
2022/02/23 03:58:48;;;;;;;8.75;2.40;;;;;;;6.23;76.12;100750.91;1087576;54;20682;-79
2022/02/23 03:59:53;;;;;;;7.10;1.65;;;;;;;6.25;76.20;100748.97;1087340;54;20038;-80
2022/02/23 04:00:58;;;;;;;7.38;1.65;;;;;;;6.27;76.36;100749.72;1087938;54;20078;-79
2022/02/23 04:01:59;;;;;;;4.40;1.40;;;;;;;6.28;76.29;100748.78;1087845;54;20031;-79
2022/02/23 04:03:04;;;;;;;6.25;1.67;;;;;;;6.37;76.07;100752.66;1087941;54;20066;-79
2022/02/23 04:04:06;;;;;;;8.05;2.35;;;;;;;6.35;76.00;100755.38;1087950;54;20030;-79
2022/02/23 04:05:12;;;;;;;6.22;1.65;;;;;;;6.33;76.18;100761.75;1087832;54;20035;-79
2022/02/23 04:06:13;;;;;;;10.00;2.53;;;;;;;6.19;76.72;100754.69;1087828;54;20738;-80
2022/02/23 04:07:17;;;;;;;6.43;2.05;;;;;;;6.25;76.49;100764.91;1088629;46;20035;-79
2022/02/23 04:08:19;;;;;;;9.80;2.20;;;;;;;6.12;77.07;100764.84;1087950;54;20039;-79
2022/02/23 04:09:23;;;;;;;6.10;1.88;;;;;;;6.05;77.30;100776.81;1087875;54;20038;-80
2022/02/23 04:10:25;;;;;;;8.18;2.20;;;;;;;6.14;77.44;100770.91;1087803;54;20035;-79
2022/02/23 04:11:29;;;;;;;8.43;2.33;;;;;;;6.27;76.71;100772.78;1087959;54;20046;-79
2022/02/23 04:12:31;;;;;;;7.47;2.00;;;;;;;6.38;76.29;100770.25;1087980;54;20047;-79
2022/02/23 04:13:39;;;;;;;9.57;1.70;;;;;;;6.48;75.78;100776.69;1088111;54;20788;-79
2022/02/23 04:14:40;;;;;;;6.15;1.83;;;;;;;6.55;75.84;100772.69;1087962;54;20038;-80
2022/02/23 04:15:45;;;;;;;5.85;1.75;;;;;;;6.58;75.61;100776.06;1087683;54;20058;-78
2022/02/23 04:16:46;;;;;;;6.65;1.67;;;;;;;6.65;75.21;100780.06;1087596;54;20061;-79
2022/02/23 04:17:51;;;;;;;6.18;2.20;;;;;;;6.58;75.30;100782.25;1087870;54;20030;-80
2022/02/23 04:18:53;;;;;;;6.60;1.70;;;;;;;6.54;75.50;100780.75;1087886;54;20039;-78
2022/02/23 04:19:58;;;;;;;9.90;2.67;;;;;;;6.36;75.88;100781.00;1088012;54;20075;-79
2022/02/23 04:20:59;;;;;;;7.10;2.63;;;;;;;6.38;75.96;100786.19;1087985;54;20073;-79
2022/02/23 04:22:05;;;;;;;8.77;2.80;;;;;;;6.25;76.28;100786.16;1087988;54;20030;-79
2022/02/23 04:23:07;;;;;;;7.07;2.20;;;;;;;6.28;76.48;100780.66;1090080;39;20681;-80
2022/02/23 04:24:11;;;;;;;8.02;2.55;;;;;;;6.37;76.35;100798.63;1088041;54;20034;-79
2022/02/23 04:25:13;;;;;;;7.72;2.25;;;;;;;6.27;76.49;100794.03;1087957;54;20034;-79
2022/02/23 04:26:18;;;;;;;9.20;2.60;;;;;;;6.27;76.44;100794.88;1087926;54;20094;-81
2022/02/23 04:27:19;;;;;;;6.88;2.08;;;;;;;6.44;75.92;100795.56;1087995;54;20042;-81
2022/02/23 04:28:26;;;;;;;6.55;1.80;;;;;;;6.49;76.07;100796.16;1088079;54;20030;-79
2022/02/23 04:29:31;;;;;;;5.50;1.75;;;;;;;6.59;75.58;100802.56;1088063;54;20065;-79
2022/02/23 04:30:35;;;;;;;9.93;2.05;;;;;;;6.59;75.51;100799.91;1087897;54;20058;-80
2022/02/23 04:31:37;;;;;;;6.40;1.77;;;;;;;6.65;75.36;100803.97;1087873;54;20030;-80
2022/02/23 04:32:41;;;;;;;5.18;2.03;;;;;;;6.67;75.16;100802.03;1087714;54;20034;-81
2022/02/23 04:33:45;;;;;;;5.20;1.60;;;;;;;6.70;75.07;100808.03;1087908;54;20059;-81
2022/02/23 04:34:48;;;;;;;5.47;1.40;;;;;;;6.75;74.83;100806.84;1088069;54;20041;-80
2022/02/23 04:35:52;;;;;;;4.95;1.33;;;;;;;6.75;74.89;100810.38;1087940;54;20699;-78
2022/02/23 04:36:57;;;;;;;6.63;1.80;;;;;;;6.75;74.84;100815.69;1088015;54;20041;-80
2022/02/23 04:38:02;;;;;;;5.60;1.38;;;;;;;6.78;74.68;100809.31;1087597;54;20065;-79
2022/02/23 04:39:04;;;;;;;6.00;1.80;;;;;;;6.76;74.67;100821.84;1088059;54;20074;-79
2022/02/23 04:40:14;;;;;;;7.28;2.22;;;;;;;6.76;74.71;100813.88;1088073;54;20034;-79
2022/02/23 04:41:27;;;;;;;5.80;1.90;;;;;;;6.79;74.63;100816.34;1088260;54;20034;-82
2022/02/23 04:42:32;;;;;;;7.10;1.80;;;;;;;6.80;74.50;100823.38;1087888;54;20027;-78
2022/02/23 04:43:45;;;;;;;5.68;1.55;;;;;;;6.81;74.26;100820.59;1088084;54;20031;-80
2022/02/23 04:44:49;;;;;;;5.72;1.98;;;;;;;6.80;74.47;100824.22;1088381;54;20063;-79
2022/02/23 04:45:54;;;;;;;6.35;1.77;;;;;;;6.83;74.22;100818.69;1087856;54;20014;-80
2022/02/23 04:46:57;;;;;;;5.13;1.58;;;;;;;6.76;74.65;100821.84;1088263;54;20030;-81
2022/02/23 04:48:01;;;;;;;10.85;3.33;;;;;;;6.72;74.67;100821.22;1088556;54;20023;-80
2022/02/23 04:49:06;;;;;;;5.93;2.00;;;;;;;6.70;74.77;100818.66;1088129;54;20682;-79
2022/02/23 04:50:08;;;;;;;7.38;2.13;;;;;;;6.74;74.75;100829.06;1088137;54;20745;-79
2022/02/23 04:51:14;;;;;;;9.55;3.22;;;;;;;6.78;74.62;100827.94;1088402;54;20107;-80
2022/02/23 04:52:16;;;;;;;6.95;2.28;;;;;;;6.66;75.15;100826.94;1088400;54;20034;-79
2022/02/23 04:53:21;;;;;;;7.43;3.03;;;;;;;6.73;74.95;100828.22;1088434;54;20821;-80
2022/02/23 04:54:23;;;;;;;5.88;2.45;;;;;;;6.77;74.44;100834.19;1088443;54;20031;-80
2022/02/23 04:55:27;;;;;;;6.95;1.98;;;;;;;6.81;74.58;100830.38;1088228;54;20059;-79
2022/02/23 04:56:29;;;;;;;5.50;1.60;;;;;;;6.77;74.67;100829.72;1088302;54;20051;-79
2022/02/23 04:57:34;;;;;;;6.82;2.03;;;;;;;6.73;74.74;100828.22;1088446;54;20014;-79
2022/02/23 04:58:37;;;;;;;7.75;1.70;;;;;;;6.71;74.92;100828.31;1089900;46;20034;-79
2022/02/23 04:59:41;;;;;;;7.38;1.80;;;;;;;6.74;74.57;100829.94;1088475;54;20086;-79
2022/02/23 05:00:48;;;;;;;6.15;1.85;;;;;;;6.57;74.92;100831.03;1088371;54;20110;-79
2022/02/23 05:51:36;;;;;;;7.63;3.22;;;;;;;5.41;77.87;100904.50;1089545;39;20764;-79
2022/02/23 05:52:38;;;;;;;9.02;3.38;;;;;;;5.52;77.11;100909.16;1090153;46;20014;-78
2022/02/23 05:53:42;;;;;;;8.75;2.78;;;;;;;5.62;76.80;100899.69;1088154;54;20042;-76
2022/02/23 05:54:44;;;;;;;6.47;2.08;;;;;;;5.76;76.65;100904.19;1088228;54;20042;-78
2022/02/23 05:55:49;;;;;;;4.93;1.67;;;;;;;5.85;76.33;100908.09;1096346;39;20712;-78
2022/02/23 05:56:54;;;;;;;5.88;2.10;;;;;;;5.92;76.40;100901.44;1088244;54;20037;-78
2022/02/23 05:57:58;;;;;;;9.35;2.58;;;;;;;5.98;75.85;100906.38;1088282;54;20030;-77
2022/02/23 05:59:00;;;;;;;5.70;2.08;;;;;;;6.04;75.75;100913.13;1089293;46;20034;-76
2022/02/23 06:00:07;;;;;;;4.85;2.03;;;;;;;6.09;75.80;100916.38;1088117;54;20030;-77
2022/02/23 06:01:11;;;;;;;5.05;1.67;;;;;;;6.15;75.54;100917.78;1088167;54;20051;-77
2022/02/23 06:02:15;;;;;;;4.65;1.80;;;;;;;6.14;75.60;100922.25;1088141;54;20812;-78
2022/02/23 06:03:16;;;;;;;6.65;2.10;;;;;;;6.15;75.75;100929.28;1089146;39;20578;-76
2022/02/23 06:04:21;;;;;;;5.35;1.80;;;;;;;6.21;75.71;100930.69;1088172;54;20037;-76
2022/02/23 06:05:22;;;;;;;8.50;2.45;;;;;;;6.14;75.53;100930.22;1089245;46;20742;-76
2022/02/23 06:06:27;;;;;;;4.53;1.88;;;;;;;6.20;75.76;100931.63;1090219;46;20094;-76
2022/02/23 06:07:31;;;;;;;7.85;2.42;;;;;;;6.17;76.10;100926.50;1088854;46;20055;-76
2022/02/23 06:08:36;;;;;;;6.97;2.20;;;;;;;6.14;76.06;100926.72;1088152;54;20022;-77
2022/02/23 06:09:38;;;;;;;7.03;2.55;;;;;;;6.18;76.21;100928.22;1088163;54;20058;-77
2022/02/23 06:10:42;;;;;;;7.85;2.55;;;;;;;6.16;75.86;100924.78;1088100;54;20031;-76
2022/02/23 06:11:44;;;;;;;9.02;3.03;;;;;;;6.08;76.04;100925.28;1088050;54;20068;-76